sensor_id;sensor_type;location;lat;lon;timestamp;temperature;humidity
22765;DHT22;11549;50.852;3.816;2023-12-20T00:00:50;7.50;99.90
22765;DHT22;11549;50.852;3.816;2023-12-20T00:03:20;7.50;99.90
22765;DHT22;11549;50.852;3.816;2023-12-20T00:05:48;7.50;99.90
22765;DHT22;11549;50.852;3.816;2023-12-20T00:08:17;7.50;99.90
22765;DHT22;11549;50.852;3.816;2023-12-20T00:10:45;7.50;99.90
22765;DHT22;11549;50.852;3.816;2023-12-20T00:13:13;7.50;99.90
22765;DHT22;11549;50.852;3.816;2023-12-20T00:15:42;7.50;99.90
22765;DHT22;11549;50.852;3.816;2023-12-20T00:18:10;7.50;99.90
22765;DHT22;11549;50.852;3.816;2023-12-20T00:20:40;7.60;99.90
22765;DHT22;11549;50.852;3.816;2023-12-20T00:23:08;7.60;99.90
22765;DHT22;11549;50.852;3.816;2023-12-20T00:25:37;7.50;99.90
22765;DHT22;11549;50.852;3.816;2023-12-20T00:28:05;7.60;99.90
22765;DHT22;11549;50.852;3.816;2023-12-20T00:30:34;7.60;99.90
22765;DHT22;11549;50.852;3.816;2023-12-20T00:33:03;7.50;99.90
22765;DHT22;11549;50.852;3.816;2023-12-20T00:35:32;7.50;99.90
22765;DHT22;11549;50.852;3.816;2023-12-20T00:38:02;7.50;99.90
22765;DHT22;11549;50.852;3.816;2023-12-20T00:40:32;7.50;99.90
22765;DHT22;11549;50.852;3.816;2023-12-20T00:43:00;7.50;99.90
22765;DHT22;11549;50.852;3.816;2023-12-20T00:45:29;7.50;99.90
22765;DHT22;11549;50.852;3.816;2023-12-20T00:47:57;7.30;99.90
22765;DHT22;11549;50.852;3.816;2023-12-20T00:50:27;7.30;99.90
22765;DHT22;11549;50.852;3.816;2023-12-20T00:52:56;7.20;99.90
22765;DHT22;11549;50.852;3.816;2023-12-20T00:55:26;7.20;99.90
22765;DHT22;11549;50.852;3.816;2023-12-20T00:57:54;7.30;99.90
22765;DHT22;11549;50.852;3.816;2023-12-20T01:00:23;7.30;99.90
22765;DHT22;11549;50.852;3.816;2023-12-20T01:02:51;7.30;99.90
22765;DHT22;11549;50.852;3.816;2023-12-20T01:05:18;7.20;99.90
22765;DHT22;11549;50.852;3.816;2023-12-20T01:07:50;7.20;99.90
22765;DHT22;11549;50.852;3.816;2023-12-20T01:10:18;7.20;99.90
22765;DHT22;11549;50.852;3.816;2023-12-20T01:12:48;7.20;99.90
22765;DHT22;11549;50.852;3.816;2023-12-20T01:15:16;7.20;99.90
22765;DHT22;11549;50.852;3.816;2023-12-20T01:17:45;7.10;99.90
22765;DHT22;11549;50.852;3.816;2023-12-20T01:20:14;7.00;99.90
22765;DHT22;11549;50.852;3.816;2023-12-20T01:22:43;7.10;99.90
22765;DHT22;11549;50.852;3.816;2023-12-20T01:25:13;7.00;99.90
22765;DHT22;11549;50.852;3.816;2023-12-20T01:27:44;7.10;99.90
22765;DHT22;11549;50.852;3.816;2023-12-20T01:30:15;7.10;99.90
22765;DHT22;11549;50.852;3.816;2023-12-20T01:32:43;7.10;99.90
22765;DHT22;11549;50.852;3.816;2023-12-20T01:35:11;7.10;99.90
22765;DHT22;11549;50.852;3.816;2023-12-20T01:37:40;7.20;99.90
22765;DHT22;11549;50.852;3.816;2023-12-20T01:40:10;7.20;99.90
22765;DHT22;11549;50.852;3.816;2023-12-20T01:42:38;7.20;99.90
22765;DHT22;11549;50.852;3.816;2023-12-20T01:45:07;7.20;99.90
22765;DHT22;11549;50.852;3.816;2023-12-20T01:47:37;7.10;99.90
22765;DHT22;11549;50.852;3.816;2023-12-20T01:50:07;7.20;99.90
22765;DHT22;11549;50.852;3.816;2023-12-20T01:52:36;7.20;99.90
22765;DHT22;11549;50.852;3.816;2023-12-20T01:55:06;7.20;99.90
22765;DHT22;11549;50.852;3.816;2023-12-20T01:57:40;7.20;99.90
22765;DHT22;11549;50.852;3.816;2023-12-20T02:00:12;7.30;99.90
22765;DHT22;11549;50.852;3.816;2023-12-20T02:02:43;7.30;99.90
22765;DHT22;11549;50.852;3.816;2023-12-20T02:05:13;7.20;99.90
22765;DHT22;11549;50.852;3.816;2023-12-20T02:07:42;7.20;99.90
22765;DHT22;11549;50.852;3.816;2023-12-20T02:10:11;7.20;99.90
22765;DHT22;11549;50.852;3.816;2023-12-20T02:12:40;7.30;99.90
22765;DHT22;11549;50.852;3.816;2023-12-20T02:15:08;7.30;99.90
22765;DHT22;11549;50.852;3.816;2023-12-20T02:17:38;7.30;99.90
22765;DHT22;11549;50.852;3.816;2023-12-20T02:20:10;7.30;99.90
22765;DHT22;11549;50.852;3.816;2023-12-20T02:22:40;7.30;99.90
22765;DHT22;11549;50.852;3.816;2023-12-20T02:25:08;7.30;99.90
22765;DHT22;11549;50.852;3.816;2023-12-20T02:27:37;7.20;99.90
22765;DHT22;11549;50.852;3.816;2023-12-20T02:30:07;7.20;99.90
22765;DHT22;11549;50.852;3.816;2023-12-20T02:32:35;7.20;99.90
22765;DHT22;11549;50.852;3.816;2023-12-20T02:35:04;7.20;99.90
22765;DHT22;11549;50.852;3.816;2023-12-20T02:37:33;7.20;99.90
22765;DHT22;11549;50.852;3.816;2023-12-20T02:40:04;7.20;99.90
22765;DHT22;11549;50.852;3.816;2023-12-20T02:42:32;7.30;99.90
22765;DHT22;11549;50.852;3.816;2023-12-20T02:45:01;7.20;99.90
22765;DHT22;11549;50.852;3.816;2023-12-20T02:47:29;7.30;99.90
22765;DHT22;11549;50.852;3.816;2023-12-20T02:49:57;7.20;99.90
22765;DHT22;11549;50.852;3.816;2023-12-20T02:52:28;7.20;99.90
22765;DHT22;11549;50.852;3.816;2023-12-20T02:54:57;7.30;99.90
22765;DHT22;11549;50.852;3.816;2023-12-20T02:57:28;7.20;99.90
22765;DHT22;11549;50.852;3.816;2023-12-20T02:59:56;7.20;99.90
22765;DHT22;11549;50.852;3.816;2023-12-20T03:02:24;7.20;99.90
22765;DHT22;11549;50.852;3.816;2023-12-20T03:04:53;7.20;99.90
22765;DHT22;11549;50.852;3.816;2023-12-20T03:07:22;7.20;99.90
22765;DHT22;11549;50.852;3.816;2023-12-20T03:09:50;7.30;99.90
22765;DHT22;11549;50.852;3.816;2023-12-20T03:12:39;7.20;99.90
22765;DHT22;11549;50.852;3.816;2023-12-20T03:15:09;7.20;99.90
22765;DHT22;11549;50.852;3.816;2023-12-20T03:17:37;7.20;99.90
22765;DHT22;11549;50.852;3.816;2023-12-20T03:20:07;7.20;99.90
22765;DHT22;11549;50.852;3.816;2023-12-20T03:22:36;7.20;99.90
22765;DHT22;11549;50.852;3.816;2023-12-20T03:25:04;7.20;99.90
22765;DHT22;11549;50.852;3.816;2023-12-20T03:27:33;7.10;99.90
22765;DHT22;11549;50.852;3.816;2023-12-20T03:30:03;7.10;99.90
22765;DHT22;11549;50.852;3.816;2023-12-20T03:32:33;7.10;99.90
22765;DHT22;11549;50.852;3.816;2023-12-20T03:35:01;7.20;99.90
22765;DHT22;11549;50.852;3.816;2023-12-20T03:37:30;7.20;99.90
22765;DHT22;11549;50.852;3.816;2023-12-20T03:39:58;7.10;99.90
22765;DHT22;11549;50.852;3.816;2023-12-20T03:42:27;7.10;99.90
22765;DHT22;11549;50.852;3.816;2023-12-20T03:44:55;7.10;99.90
22765;DHT22;11549;50.852;3.816;2023-12-20T03:47:25;7.10;99.90
22765;DHT22;11549;50.852;3.816;2023-12-20T03:49:53;7.10;99.90
22765;DHT22;11549;50.852;3.816;2023-12-20T03:52:22;7.20;99.90
22765;DHT22;11549;50.852;3.816;2023-12-20T03:54:50;7.20;99.90
22765;DHT22;11549;50.852;3.816;2023-12-20T03:57:18;7.10;99.90
22765;DHT22;11549;50.852;3.816;2023-12-20T03:59:47;7.10;99.90
22765;DHT22;11549;50.852;3.816;2023-12-20T04:02:16;7.10;99.90
22765;DHT22;11549;50.852;3.816;2023-12-20T04:04:46;7.10;99.90
22765;DHT22;11549;50.852;3.816;2023-12-20T04:07:14;7.00;99.90
22765;DHT22;11549;50.852;3.816;2023-12-20T04:09:43;7.10;99.90
22765;DHT22;11549;50.852;3.816;2023-12-20T04:12:11;7.00;99.90
22765;DHT22;11549;50.852;3.816;2023-12-20T04:14:40;7.20;99.90
22765;DHT22;11549;50.852;3.816;2023-12-20T04:17:08;7.20;99.90
22765;DHT22;11549;50.852;3.816;2023-12-20T04:19:36;7.20;99.90
22765;DHT22;11549;50.852;3.816;2023-12-20T04:22:06;7.10;99.90
22765;DHT22;11549;50.852;3.816;2023-12-20T04:24:35;7.00;99.90
22765;DHT22;11549;50.852;3.816;2023-12-20T04:27:03;7.10;99.90
22765;DHT22;11549;50.852;3.816;2023-12-20T04:29:32;7.10;99.90
22765;DHT22;11549;50.852;3.816;2023-12-20T04:32:00;6.90;99.90
22765;DHT22;11549;50.852;3.816;2023-12-20T04:34:29;6.90;99.90
22765;DHT22;11549;50.852;3.816;2023-12-20T04:36:57;7.00;99.90
22765;DHT22;11549;50.852;3.816;2023-12-20T04:39:27;7.00;99.90
22765;DHT22;11549;50.852;3.816;2023-12-20T04:41:55;6.90;99.90
22765;DHT22;11549;50.852;3.816;2023-12-20T04:44:24;6.80;99.90
22765;DHT22;11549;50.852;3.816;2023-12-20T04:46:53;6.80;99.90
22765;DHT22;11549;50.852;3.816;2023-12-20T04:49:23;6.80;99.90
22765;DHT22;11549;50.852;3.816;2023-12-20T04:51:53;6.80;99.90
22765;DHT22;11549;50.852;3.816;2023-12-20T04:54:21;6.70;99.90
22765;DHT22;11549;50.852;3.816;2023-12-20T04:56:51;6.60;99.90
22765;DHT22;11549;50.852;3.816;2023-12-20T04:59:19;6.60;99.90
22765;DHT22;11549;50.852;3.816;2023-12-20T05:01:48;6.60;99.90
22765;DHT22;11549;50.852;3.816;2023-12-20T05:04:16;6.50;99.90
22765;DHT22;11549;50.852;3.816;2023-12-20T05:06:45;6.50;99.90
22765;DHT22;11549;50.852;3.816;2023-12-20T05:09:13;6.50;99.90
22765;DHT22;11549;50.852;3.816;2023-12-20T05:11:42;6.50;99.90
22765;DHT22;11549;50.852;3.816;2023-12-20T05:14:12;6.50;99.90
22765;DHT22;11549;50.852;3.816;2023-12-20T05:16:40;6.40;99.90
22765;DHT22;11549;50.852;3.816;2023-12-20T05:19:08;6.40;99.90
22765;DHT22;11549;50.852;3.816;2023-12-20T05:21:37;6.40;99.90
22765;DHT22;11549;50.852;3.816;2023-12-20T05:24:05;6.40;99.90
22765;DHT22;11549;50.852;3.816;2023-12-20T05:26:34;6.40;99.90
22765;DHT22;11549;50.852;3.816;2023-12-20T05:29:02;6.40;99.90
22765;DHT22;11549;50.852;3.816;2023-12-20T05:31:32;6.40;99.90
22765;DHT22;11549;50.852;3.816;2023-12-20T05:34:00;6.40;99.90
22765;DHT22;11549;50.852;3.816;2023-12-20T05:36:29;6.50;99.90
22765;DHT22;11549;50.852;3.816;2023-12-20T05:38:57;6.50;99.90
22765;DHT22;11549;50.852;3.816;2023-12-20T05:41:26;6.50;99.90
22765;DHT22;11549;50.852;3.816;2023-12-20T05:43:54;6.40;99.90
22765;DHT22;11549;50.852;3.816;2023-12-20T05:46:25;6.40;99.90
22765;DHT22;11549;50.852;3.816;2023-12-20T05:48:54;6.50;99.90
22765;DHT22;11549;50.852;3.816;2023-12-20T05:51:23;6.50;99.90
22765;DHT22;11549;50.852;3.816;2023-12-20T05:53:51;6.50;99.90
22765;DHT22;11549;50.852;3.816;2023-12-20T05:56:19;6.50;99.90
22765;DHT22;11549;50.852;3.816;2023-12-20T05:58:47;6.60;99.90
22765;DHT22;11549;50.852;3.816;2023-12-20T06:01:16;6.50;99.90
22765;DHT22;11549;50.852;3.816;2023-12-20T06:03:45;6.60;99.90
22765;DHT22;11549;50.852;3.816;2023-12-20T06:06:15;6.50;99.90
22765;DHT22;11549;50.852;3.816;2023-12-20T06:08:44;6.60;99.90
22765;DHT22;11549;50.852;3.816;2023-12-20T06:11:13;6.60;99.90
22765;DHT22;11549;50.852;3.816;2023-12-20T06:13:41;6.60;99.90
22765;DHT22;11549;50.852;3.816;2023-12-20T06:16:10;6.60;99.90
22765;DHT22;11549;50.852;3.816;2023-12-20T06:18:38;6.60;99.90
22765;DHT22;11549;50.852;3.816;2023-12-20T06:21:07;6.60;99.90
22765;DHT22;11549;50.852;3.816;2023-12-20T06:23:36;6.60;99.90
22765;DHT22;11549;50.852;3.816;2023-12-20T06:26:05;6.60;99.90
22765;DHT22;11549;50.852;3.816;2023-12-20T06:28:33;6.60;99.90
22765;DHT22;11549;50.852;3.816;2023-12-20T06:31:04;6.60;99.90
22765;DHT22;11549;50.852;3.816;2023-12-20T06:33:32;6.60;99.90
22765;DHT22;11549;50.852;3.816;2023-12-20T06:36:01;6.50;99.90
22765;DHT22;11549;50.852;3.816;2023-12-20T06:38:29;6.40;99.90
22765;DHT22;11549;50.852;3.816;2023-12-20T06:40:59;6.40;99.90
22765;DHT22;11549;50.852;3.816;2023-12-20T06:43:28;6.30;99.90
22765;DHT22;11549;50.852;3.816;2023-12-20T06:46:15;6.30;99.90
22765;DHT22;11549;50.852;3.816;2023-12-20T06:48:44;6.30;99.90
22765;DHT22;11549;50.852;3.816;2023-12-20T06:51:15;6.20;99.90
22765;DHT22;11549;50.852;3.816;2023-12-20T06:53:43;6.20;99.90
22765;DHT22;11549;50.852;3.816;2023-12-20T06:56:13;6.20;99.90
22765;DHT22;11549;50.852;3.816;2023-12-20T06:58:45;6.20;99.90
22765;DHT22;11549;50.852;3.816;2023-12-20T07:01:15;6.20;99.90
22765;DHT22;11549;50.852;3.816;2023-12-20T07:03:43;6.20;99.90
22765;DHT22;11549;50.852;3.816;2023-12-20T07:06:12;6.20;99.90
22765;DHT22;11549;50.852;3.816;2023-12-20T07:08:42;6.30;99.90
22765;DHT22;11549;50.852;3.816;2023-12-20T07:11:11;6.20;99.90
22765;DHT22;11549;50.852;3.816;2023-12-20T07:13:41;6.10;99.90
22765;DHT22;11549;50.852;3.816;2023-12-20T07:16:09;6.10;99.90
22765;DHT22;11549;50.852;3.816;2023-12-20T07:18:38;6.00;99.90
22765;DHT22;11549;50.852;3.816;2023-12-20T07:21:06;6.00;99.90
22765;DHT22;11549;50.852;3.816;2023-12-20T07:23:35;6.00;99.90
22765;DHT22;11549;50.852;3.816;2023-12-20T07:26:03;6.00;99.90
22765;DHT22;11549;50.852;3.816;2023-12-20T07:28:32;6.00;99.90
22765;DHT22;11549;50.852;3.816;2023-12-20T07:31:02;6.10;99.90
22765;DHT22;11549;50.852;3.816;2023-12-20T07:33:31;6.00;99.90
22765;DHT22;11549;50.852;3.816;2023-12-20T07:36:06;5.90;99.90
22765;DHT22;11549;50.852;3.816;2023-12-20T07:38:34;6.00;99.90
22765;DHT22;11549;50.852;3.816;2023-12-20T07:41:03;6.00;99.90
22765;DHT22;11549;50.852;3.816;2023-12-20T07:43:31;6.00;99.90
22765;DHT22;11549;50.852;3.816;2023-12-20T07:46:05;6.00;99.90
22765;DHT22;11549;50.852;3.816;2023-12-20T07:48:34;6.00;99.90
22765;DHT22;11549;50.852;3.816;2023-12-20T07:51:03;5.90;99.90
22765;DHT22;11549;50.852;3.816;2023-12-20T07:53:33;5.90;99.90
22765;DHT22;11549;50.852;3.816;2023-12-20T07:56:02;6.00;99.90
22765;DHT22;11549;50.852;3.816;2023-12-20T07:58:31;6.00;99.90
22765;DHT22;11549;50.852;3.816;2023-12-20T08:01:18;6.00;99.90
22765;DHT22;11549;50.852;3.816;2023-12-20T08:03:49;6.00;99.90
22765;DHT22;11549;50.852;3.816;2023-12-20T08:06:19;6.00;99.90
22765;DHT22;11549;50.852;3.816;2023-12-20T08:08:47;6.20;99.90
22765;DHT22;11549;50.852;3.816;2023-12-20T08:11:28;6.40;99.90
22765;DHT22;11549;50.852;3.816;2023-12-20T08:13:56;6.60;99.90
22765;DHT22;11549;50.852;3.816;2023-12-20T08:16:26;6.80;99.90
22765;DHT22;11549;50.852;3.816;2023-12-20T08:18:55;6.90;99.90
22765;DHT22;11549;50.852;3.816;2023-12-20T08:21:23;6.90;99.90
22765;DHT22;11549;50.852;3.816;2023-12-20T08:23:52;7.10;99.90
22765;DHT22;11549;50.852;3.816;2023-12-20T08:26:21;7.30;99.90
22765;DHT22;11549;50.852;3.816;2023-12-20T08:28:51;7.50;99.90
22765;DHT22;11549;50.852;3.816;2023-12-20T08:31:19;7.60;99.90
22765;DHT22;11549;50.852;3.816;2023-12-20T08:33:50;7.90;99.90
22765;DHT22;11549;50.852;3.816;2023-12-20T08:36:21;8.10;99.90
22765;DHT22;11549;50.852;3.816;2023-12-20T08:38:51;8.40;99.90
22765;DHT22;11549;50.852;3.816;2023-12-20T08:41:19;8.60;99.90
22765;DHT22;11549;50.852;3.816;2023-12-20T08:43:48;8.80;99.90
22765;DHT22;11549;50.852;3.816;2023-12-20T08:46:16;9.00;99.90
22765;DHT22;11549;50.852;3.816;2023-12-20T08:48:45;9.30;99.90
22765;DHT22;11549;50.852;3.816;2023-12-20T08:51:15;9.40;99.90
22765;DHT22;11549;50.852;3.816;2023-12-20T08:53:44;9.50;99.90
22765;DHT22;11549;50.852;3.816;2023-12-20T08:56:14;9.70;99.90
22765;DHT22;11549;50.852;3.816;2023-12-20T08:58:45;9.80;99.90
22765;DHT22;11549;50.852;3.816;2023-12-20T09:01:14;9.90;99.90
22765;DHT22;11549;50.852;3.816;2023-12-20T09:03:43;10.10;99.90
22765;DHT22;11549;50.852;3.816;2023-12-20T09:06:11;10.20;99.90
22765;DHT22;11549;50.852;3.816;2023-12-20T09:08:41;10.40;99.90
22765;DHT22;11549;50.852;3.816;2023-12-20T09:11:10;10.60;99.90
22765;DHT22;11549;50.852;3.816;2023-12-20T09:13:39;10.60;99.90
22765;DHT22;11549;50.852;3.816;2023-12-20T09:16:08;10.30;99.90
22765;DHT22;11549;50.852;3.816;2023-12-20T09:18:37;10.00;99.90
22765;DHT22;11549;50.852;3.816;2023-12-20T09:21:05;9.70;99.90
22765;DHT22;11549;50.852;3.816;2023-12-20T09:23:33;9.60;99.90
22765;DHT22;11549;50.852;3.816;2023-12-20T09:26:05;9.60;99.90
22765;DHT22;11549;50.852;3.816;2023-12-20T09:28:33;9.30;99.90
22765;DHT22;11549;50.852;3.816;2023-12-20T09:31:06;9.10;99.90
22765;DHT22;11549;50.852;3.816;2023-12-20T09:33:35;9.00;99.90
22765;DHT22;11549;50.852;3.816;2023-12-20T09:36:04;8.90;99.90
22765;DHT22;11549;50.852;3.816;2023-12-20T09:38:33;8.80;99.90
22765;DHT22;11549;50.852;3.816;2023-12-20T09:41:02;8.70;99.90
22765;DHT22;11549;50.852;3.816;2023-12-20T09:43:37;8.80;99.90
22765;DHT22;11549;50.852;3.816;2023-12-20T09:46:06;8.90;99.90
22765;DHT22;11549;50.852;3.816;2023-12-20T09:48:36;8.90;99.90
22765;DHT22;11549;50.852;3.816;2023-12-20T09:51:05;8.90;99.90
22765;DHT22;11549;50.852;3.816;2023-12-20T09:53:35;9.20;99.90
22765;DHT22;11549;50.852;3.816;2023-12-20T09:56:06;9.30;99.90
22765;DHT22;11549;50.852;3.816;2023-12-20T09:58:37;9.30;99.90
22765;DHT22;11549;50.852;3.816;2023-12-20T10:01:07;9.30;99.90
22765;DHT22;11549;50.852;3.816;2023-12-20T10:03:37;9.30;99.90
22765;DHT22;11549;50.852;3.816;2023-12-20T10:06:07;9.20;99.90
22765;DHT22;11549;50.852;3.816;2023-12-20T10:08:36;9.10;99.90
22765;DHT22;11549;50.852;3.816;2023-12-20T10:11:05;8.90;99.90
22765;DHT22;11549;50.852;3.816;2023-12-20T10:13:34;8.90;99.90
22765;DHT22;11549;50.852;3.816;2023-12-20T10:16:04;8.80;99.90
22765;DHT22;11549;50.852;3.816;2023-12-20T10:18:34;8.70;99.90
22765;DHT22;11549;50.852;3.816;2023-12-20T10:21:06;8.70;99.90
22765;DHT22;11549;50.852;3.816;2023-12-20T10:23:34;8.60;99.90
22765;DHT22;11549;50.852;3.816;2023-12-20T10:26:03;8.70;99.90
22765;DHT22;11549;50.852;3.816;2023-12-20T10:28:33;8.60;99.90
22765;DHT22;11549;50.852;3.816;2023-12-20T10:31:04;8.60;99.90
22765;DHT22;11549;50.852;3.816;2023-12-20T10:33:32;8.60;99.90
22765;DHT22;11549;50.852;3.816;2023-12-20T10:36:01;8.60;99.90
22765;DHT22;11549;50.852;3.816;2023-12-20T10:38:30;8.70;99.90
22765;DHT22;11549;50.852;3.816;2023-12-20T10:40:59;8.70;99.90
22765;DHT22;11549;50.852;3.816;2023-12-20T10:43:30;8.80;99.90
22765;DHT22;11549;50.852;3.816;2023-12-20T10:46:04;8.70;99.90
22765;DHT22;11549;50.852;3.816;2023-12-20T10:48:33;8.60;99.90
22765;DHT22;11549;50.852;3.816;2023-12-20T10:51:04;8.60;99.90
22765;DHT22;11549;50.852;3.816;2023-12-20T10:53:33;8.60;99.90
22765;DHT22;11549;50.852;3.816;2023-12-20T10:56:06;8.60;99.90
22765;DHT22;11549;50.852;3.816;2023-12-20T10:58:37;8.70;99.90
22765;DHT22;11549;50.852;3.816;2023-12-20T11:01:12;8.70;99.90
22765;DHT22;11549;50.852;3.816;2023-12-20T11:03:44;8.60;99.90
22765;DHT22;11549;50.852;3.816;2023-12-20T11:06:18;8.60;99.90
22765;DHT22;11549;50.852;3.816;2023-12-20T11:08:51;8.70;99.90
22765;DHT22;11549;50.852;3.816;2023-12-20T11:11:26;8.70;99.90
22765;DHT22;11549;50.852;3.816;2023-12-20T11:13:59;8.70;99.90
22765;DHT22;11549;50.852;3.816;2023-12-20T11:16:31;8.60;99.90
22765;DHT22;11549;50.852;3.816;2023-12-20T11:19:14;8.70;99.90
22765;DHT22;11549;50.852;3.816;2023-12-20T11:21:43;8.80;99.90
22765;DHT22;11549;50.852;3.816;2023-12-20T11:24:11;8.80;99.90
22765;DHT22;11549;50.852;3.816;2023-12-20T11:26:47;8.80;99.90
22765;DHT22;11549;50.852;3.816;2023-12-20T11:29:33;8.80;99.90
22765;DHT22;11549;50.852;3.816;2023-12-20T11:32:04;8.80;99.90
22765;DHT22;11549;50.852;3.816;2023-12-20T11:34:54;8.90;99.90
22765;DHT22;11549;50.852;3.816;2023-12-20T11:37:28;8.80;99.90
22765;DHT22;11549;50.852;3.816;2023-12-20T11:40:01;8.80;99.90
22765;DHT22;11549;50.852;3.816;2023-12-20T11:42:32;8.90;99.90
22765;DHT22;11549;50.852;3.816;2023-12-20T11:45:02;8.90;99.90
22765;DHT22;11549;50.852;3.816;2023-12-20T11:47:33;8.90;99.90
22765;DHT22;11549;50.852;3.816;2023-12-20T11:50:02;9.00;99.90
22765;DHT22;11549;50.852;3.816;2023-12-20T11:52:31;8.90;99.90
22765;DHT22;11549;50.852;3.816;2023-12-20T11:55:00;8.80;99.90
22765;DHT22;11549;50.852;3.816;2023-12-20T11:57:29;8.90;99.90
22765;DHT22;11549;50.852;3.816;2023-12-20T11:59:57;8.90;99.90
22765;DHT22;11549;50.852;3.816;2023-12-20T12:02:26;8.90;99.90
22765;DHT22;11549;50.852;3.816;2023-12-20T12:04:56;9.00;99.90
22765;DHT22;11549;50.852;3.816;2023-12-20T12:07:25;9.00;99.90
22765;DHT22;11549;50.852;3.816;2023-12-20T12:09:54;9.00;99.90
22765;DHT22;11549;50.852;3.816;2023-12-20T12:12:22;9.00;99.90
22765;DHT22;11549;50.852;3.816;2023-12-20T12:14:52;9.20;99.90
22765;DHT22;11549;50.852;3.816;2023-12-20T12:17:21;9.10;99.90
22765;DHT22;11549;50.852;3.816;2023-12-20T12:19:49;9.30;99.90
22765;DHT22;11549;50.852;3.816;2023-12-20T12:22:19;9.20;99.90
22765;DHT22;11549;50.852;3.816;2023-12-20T12:24:52;9.20;99.90
22765;DHT22;11549;50.852;3.816;2023-12-20T12:27:21;9.20;99.90
22765;DHT22;11549;50.852;3.816;2023-12-20T12:30:01;9.20;99.90
22765;DHT22;11549;50.852;3.816;2023-12-20T12:32:31;9.20;99.90
22765;DHT22;11549;50.852;3.816;2023-12-20T12:34:59;9.30;99.90
22765;DHT22;11549;50.852;3.816;2023-12-20T12:37:29;9.20;99.90
22765;DHT22;11549;50.852;3.816;2023-12-20T12:39:58;9.20;99.90
22765;DHT22;11549;50.852;3.816;2023-12-20T12:42:26;9.20;99.90
22765;DHT22;11549;50.852;3.816;2023-12-20T12:44:56;9.30;99.90
22765;DHT22;11549;50.852;3.816;2023-12-20T12:47:24;9.20;99.90
22765;DHT22;11549;50.852;3.816;2023-12-20T12:49:52;9.20;99.90
22765;DHT22;11549;50.852;3.816;2023-12-20T12:52:21;9.30;99.90
22765;DHT22;11549;50.852;3.816;2023-12-20T12:54:51;9.40;99.90
22765;DHT22;11549;50.852;3.816;2023-12-20T12:57:20;9.40;99.90
22765;DHT22;11549;50.852;3.816;2023-12-20T12:59:49;9.40;99.90
22765;DHT22;11549;50.852;3.816;2023-12-20T13:02:17;9.50;99.90
22765;DHT22;11549;50.852;3.816;2023-12-20T13:04:45;9.60;99.90
22765;DHT22;11549;50.852;3.816;2023-12-20T13:07:14;9.60;99.90
22765;DHT22;11549;50.852;3.816;2023-12-20T13:09:43;9.70;99.90
22765;DHT22;11549;50.852;3.816;2023-12-20T13:12:13;9.70;99.90
22765;DHT22;11549;50.852;3.816;2023-12-20T13:14:41;9.70;99.90
22765;DHT22;11549;50.852;3.816;2023-12-20T13:17:10;9.80;99.90
22765;DHT22;11549;50.852;3.816;2023-12-20T13:19:38;9.70;99.90
22765;DHT22;11549;50.852;3.816;2023-12-20T13:22:07;9.80;99.90
22765;DHT22;11549;50.852;3.816;2023-12-20T13:24:36;10.00;99.90
22765;DHT22;11549;50.852;3.816;2023-12-20T13:27:05;10.00;99.90
22765;DHT22;11549;50.852;3.816;2023-12-20T13:29:34;10.00;99.90
22765;DHT22;11549;50.852;3.816;2023-12-20T13:32:06;10.00;99.90
22765;DHT22;11549;50.852;3.816;2023-12-20T13:34:35;10.10;99.90
22765;DHT22;11549;50.852;3.816;2023-12-20T13:37:04;10.00;99.90
22765;DHT22;11549;50.852;3.816;2023-12-20T13:39:33;10.00;99.90
22765;DHT22;11549;50.852;3.816;2023-12-20T13:42:01;10.10;99.90
22765;DHT22;11549;50.852;3.816;2023-12-20T13:44:30;10.00;99.90
22765;DHT22;11549;50.852;3.816;2023-12-20T13:47:01;10.00;99.90
22765;DHT22;11549;50.852;3.816;2023-12-20T13:49:31;10.00;99.90
22765;DHT22;11549;50.852;3.816;2023-12-20T13:52:00;10.10;99.90
22765;DHT22;11549;50.852;3.816;2023-12-20T13:54:31;10.10;99.90
22765;DHT22;11549;50.852;3.816;2023-12-20T13:56:59;10.00;99.90
22765;DHT22;11549;50.852;3.816;2023-12-20T13:59:42;10.10;99.90
22765;DHT22;11549;50.852;3.816;2023-12-20T14:02:13;10.10;99.90
22765;DHT22;11549;50.852;3.816;2023-12-20T14:04:43;10.10;99.90
22765;DHT22;11549;50.852;3.816;2023-12-20T14:07:12;10.10;99.90
22765;DHT22;11549;50.852;3.816;2023-12-20T14:09:40;10.00;99.90
22765;DHT22;11549;50.852;3.816;2023-12-20T14:12:13;10.00;99.90
22765;DHT22;11549;50.852;3.816;2023-12-20T14:14:42;10.00;99.90
22765;DHT22;11549;50.852;3.816;2023-12-20T14:17:13;10.00;99.90
22765;DHT22;11549;50.852;3.816;2023-12-20T14:19:42;10.00;99.90
22765;DHT22;11549;50.852;3.816;2023-12-20T14:22:11;10.10;99.90
22765;DHT22;11549;50.852;3.816;2023-12-20T14:24:44;10.00;99.90
22765;DHT22;11549;50.852;3.816;2023-12-20T14:27:13;10.10;99.90
22765;DHT22;11549;50.852;3.816;2023-12-20T14:29:42;10.10;99.90
22765;DHT22;11549;50.852;3.816;2023-12-20T14:32:14;10.10;99.90
22765;DHT22;11549;50.852;3.816;2023-12-20T14:34:43;10.00;99.90
22765;DHT22;11549;50.852;3.816;2023-12-20T14:37:11;10.10;99.90
22765;DHT22;11549;50.852;3.816;2023-12-20T14:39:39;10.10;99.90
22765;DHT22;11549;50.852;3.816;2023-12-20T14:42:08;10.20;99.90
22765;DHT22;11549;50.852;3.816;2023-12-20T14:44:39;10.10;99.90
22765;DHT22;11549;50.852;3.816;2023-12-20T14:47:08;10.20;99.90
22765;DHT22;11549;50.852;3.816;2023-12-20T14:49:38;10.10;99.90
22765;DHT22;11549;50.852;3.816;2023-12-20T14:52:07;10.10;99.90
22765;DHT22;11549;50.852;3.816;2023-12-20T14:54:38;10.10;99.90
22765;DHT22;11549;50.852;3.816;2023-12-20T14:57:09;10.10;99.90
22765;DHT22;11549;50.852;3.816;2023-12-20T14:59:37;10.10;99.90
22765;DHT22;11549;50.852;3.816;2023-12-20T15:02:06;10.10;99.90
22765;DHT22;11549;50.852;3.816;2023-12-20T15:04:34;10.10;99.90
22765;DHT22;11549;50.852;3.816;2023-12-20T15:07:04;10.00;99.90
22765;DHT22;11549;50.852;3.816;2023-12-20T15:09:33;10.00;99.90
22765;DHT22;11549;50.852;3.816;2023-12-20T15:12:02;10.00;99.90
22765;DHT22;11549;50.852;3.816;2023-12-20T15:14:31;10.00;99.90
22765;DHT22;11549;50.852;3.816;2023-12-20T15:17:00;10.00;99.90
22765;DHT22;11549;50.852;3.816;2023-12-20T15:19:28;10.00;99.90
22765;DHT22;11549;50.852;3.816;2023-12-20T15:21:56;10.00;99.90
22765;DHT22;11549;50.852;3.816;2023-12-20T15:24:27;10.10;99.90
22765;DHT22;11549;50.852;3.816;2023-12-20T15:27:05;10.10;99.90
22765;DHT22;11549;50.852;3.816;2023-12-20T15:29:34;10.10;99.90
22765;DHT22;11549;50.852;3.816;2023-12-20T15:32:03;10.00;99.90
22765;DHT22;11549;50.852;3.816;2023-12-20T15:34:32;10.00;99.90
22765;DHT22;11549;50.852;3.816;2023-12-20T15:37:01;10.00;99.90
22765;DHT22;11549;50.852;3.816;2023-12-20T15:39:31;10.00;99.90
22765;DHT22;11549;50.852;3.816;2023-12-20T15:41:59;10.00;99.90
22765;DHT22;11549;50.852;3.816;2023-12-20T15:44:27;10.00;99.90
22765;DHT22;11549;50.852;3.816;2023-12-20T15:46:56;10.00;99.90
22765;DHT22;11549;50.852;3.816;2023-12-20T15:49:24;9.90;99.90
22765;DHT22;11549;50.852;3.816;2023-12-20T15:51:53;10.00;99.90
22765;DHT22;11549;50.852;3.816;2023-12-20T15:54:21;9.90;99.90
22765;DHT22;11549;50.852;3.816;2023-12-20T15:56:51;9.80;99.90